Time;durP1;ratioP1;P1;durP2;ratioP2;P2;SDS_P1;SDS_P2;PMS_P1;PMS_P2;Temp;Humidity;BMP_temperature;BMP_pressure;BME280_temperature;BME280_humidity;BME280_pressure;Samples;Min_cycle;Max_cycle;Signal;HPM_P1;HPM_P2
2022/04/20 00:01:27;;;;;;;2.70;2.50;;;10.20;99.90;;;;;;5136903;27;20282;-73
2022/04/20 00:03:53;;;;;;;3.13;2.92;;;10.10;99.90;;;;;;5136898;27;20228;-73
2022/04/20 00:06:20;;;;;;;3.05;2.75;;;10.10;99.90;;;;;;5118267;27;20577;-74
2022/04/20 00:08:46;;;;;;;3.97;3.60;;;10.00;99.90;;;;;;5137502;27;20237;-74
2022/04/20 00:11:13;;;;;;;3.20;2.92;;;10.00;99.90;;;;;;5136913;27;20661;-73
2022/04/20 00:13:39;;;;;;;4.97;2.85;;;9.90;99.90;;;;;;5118031;27;20683;-73
2022/04/20 00:16:05;;;;;;;3.67;3.38;;;9.80;99.90;;;;;;5136832;27;20203;-73
2022/04/20 00:18:32;;;;;;;3.85;3.40;;;9.80;99.90;;;;;;5136919;27;20258;-73
2022/04/20 00:20:58;;;;;;;3.70;3.40;;;9.70;99.90;;;;;;5118234;27;20222;-72
2022/04/20 00:23:24;;;;;;;4.13;3.00;;;9.70;99.90;;;;;;5136485;27;20258;-73
2022/04/20 00:25:51;;;;;;;3.70;3.13;;;9.60;99.90;;;;;;5136556;27;20198;-73
2022/04/20 00:28:17;;;;;;;6.35;3.13;;;9.70;99.90;;;;;;5118313;27;20250;-72
2022/04/20 00:30:44;;;;;;;3.47;3.17;;;9.60;99.90;;;;;;5117948;27;20197;-73
2022/04/20 00:33:10;;;;;;;3.30;3.00;;;9.60;99.90;;;;;;5136191;27;20197;-73
2022/04/20 00:35:37;;;;;;;3.60;2.92;;;9.50;99.90;;;;;;5136235;27;20213;-73
2022/04/20 00:38:03;;;;;;;3.47;3.22;;;9.50;99.90;;;;;;5136353;27;20198;-73
2022/04/20 00:40:29;;;;;;;3.30;3.10;;;9.50;99.90;;;;;;5118055;27;20214;-73
2022/04/20 00:42:56;;;;;;;3.25;2.95;;;9.40;99.90;;;;;;5135746;27;20657;-73
2022/04/20 00:45:23;;;;;;;3.90;2.97;;;9.50;99.90;;;;;;5117278;27;20194;-73
2022/04/20 00:47:50;;;;;;;2.63;2.42;;;9.40;99.90;;;;;;5118022;27;20194;-73
2022/04/20 00:50:17;;;;;;;2.92;2.60;;;9.40;99.90;;;;;;5135828;27;20267;-73
2022/04/20 00:52:44;;;;;;;2.92;2.65;;;9.40;99.90;;;;;;5135654;27;20217;-73
2022/04/20 00:55:10;;;;;;;3.00;2.80;;;9.30;99.90;;;;;;5135877;27;20239;-73
2022/04/20 00:57:37;;;;;;;4.90;3.10;;;9.20;99.90;;;;;;5134964;27;20209;-72
2022/04/20 01:00:04;;;;;;;6.00;3.05;;;9.20;99.90;;;;;;5135546;27;20225;-73
2022/04/20 01:02:31;;;;;;;7.07;2.63;;;9.20;99.90;;;;;;5135347;27;20198;-72
2022/04/20 01:04:58;;;;;;;3.33;3.13;;;9.10;99.90;;;;;;5135302;27;20202;-71
2022/04/20 01:07:24;;;;;;;4.88;3.05;;;9.10;99.90;;;;;;5135691;27;20200;-71
2022/04/20 01:09:50;;;;;;;3.25;2.80;;;9.00;99.90;;;;;;5135051;27;20229;-71
2022/04/20 01:12:18;;;;;;;3.08;2.83;;;9.00;99.90;;;;;;5135444;27;20201;-71
2022/04/20 01:14:44;;;;;;;2.80;2.60;;;9.00;99.90;;;;;;5134986;27;20634;-71
2022/04/20 01:17:11;;;;;;;2.95;2.75;;;8.90;99.90;;;;;;5134941;27;20609;-71
2022/04/20 01:19:38;;;;;;;3.70;2.47;;;8.90;99.90;;;;;;5134853;27;20198;-71
2022/04/20 01:22:06;;;;;;;3.15;2.85;;;8.90;99.90;;;;;;5135110;27;20296;-72
2022/04/20 01:24:33;;;;;;;5.38;2.70;;;8.90;99.90;;;;;;5134802;27;20695;-72
2022/04/20 01:27:01;;;;;;;4.40;2.72;;;8.80;99.90;;;;;;5134312;27;20197;-71
2022/04/20 01:29:28;;;;;;;2.88;2.67;;;8.80;99.90;;;;;;5134905;27;20194;-71
2022/04/20 01:31:55;;;;;;;2.88;2.63;;;8.80;99.90;;;;;;5136647;27;20548;-71
2022/04/20 01:34:22;;;;;;;5.95;3.58;;;8.70;99.90;;;;;;5136557;27;20302;-71
2022/04/20 01:36:50;;;;;;;3.60;3.30;;;8.70;99.90;;;;;;5136155;27;20599;-71
2022/04/20 01:39:17;;;;;;;3.50;3.30;;;8.70;99.90;;;;;;5135555;27;20268;-72
2022/04/20 01:41:44;;;;;;;3.80;3.50;;;8.70;99.90;;;;;;5135858;27;20202;-71
2022/04/20 01:44:10;;;;;;;3.28;3.08;;;8.60;99.90;;;;;;5135921;27;20202;-71
2022/04/20 01:46:37;;;;;;;3.40;3.10;;;8.60;99.90;;;;;;5136650;27;20254;-71
2022/04/20 01:49:03;;;;;;;4.18;3.88;;;8.60;99.90;;;;;;5136116;27;20337;-71
2022/04/20 01:54:15;;;;;;;3.63;3.33;;;8.50;99.90;;;;;;5136682;27;20494;-71
2022/04/20 01:56:42;;;;;;;3.75;3.47;;;8.50;99.90;;;;;;5136681;27;20220;-71
2022/04/20 01:59:09;;;;;;;3.15;2.85;;;8.50;99.90;;;;;;5135988;27;20205;-72
2022/04/20 02:04:21;;;;;;;4.72;3.15;;;8.40;99.90;;;;;;5136566;27;20586;-71
2022/04/20 02:06:47;;;;;;;3.13;2.92;;;8.40;99.90;;;;;;5136050;27;20222;-71
2022/04/20 02:09:13;;;;;;;4.55;3.33;;;8.40;99.90;;;;;;5135962;27;20624;-71
2022/04/20 02:11:40;;;;;;;7.68;3.28;;;8.40;99.90;;;;;;5136440;27;20221;-71
2022/04/20 02:14:06;;;;;;;3.97;3.53;;;8.40;99.90;;;;;;5136000;27;20213;-71
2022/04/20 02:16:33;;;;;;;3.42;3.13;;;8.30;99.90;;;;;;5135933;27;20631;-71
2022/04/20 02:19:00;;;;;;;3.28;3.08;;;8.30;99.90;;;;;;5136309;27;20201;-71
2022/04/20 02:21:26;;;;;;;3.35;3.00;;;8.30;99.90;;;;;;5136302;27;20235;-71
2022/04/20 02:23:53;;;;;;;3.88;3.05;;;8.30;99.90;;;;;;5135455;27;20271;-71
2022/04/20 02:26:20;;;;;;;3.65;3.40;;;8.20;99.90;;;;;;5135826;27;20206;-71
2022/04/20 02:28:47;;;;;;;7.32;3.30;;;8.20;99.90;;;;;;5116174;27;20202;-71
2022/04/20 02:31:14;;;;;;;4.20;3.80;;;8.10;99.90;;;;;;5117347;27;20665;-71
2022/04/20 02:33:41;;;;;;;9.00;4.28;;;8.10;99.90;;;;;;5117221;27;20190;-71
2022/04/20 02:36:08;;;;;;;5.05;3.40;;;8.10;99.90;;;;;;5135668;27;20201;-71
2022/04/20 02:38:35;;;;;;;5.43;3.63;;;8.00;99.90;;;;;;5135145;27;20253;-71
2022/04/20 02:41:02;;;;;;;4.93;3.40;;;8.00;99.90;;;;;;5117285;27;20568;-71
2022/04/20 02:43:28;;;;;;;4.10;3.80;;;7.90;99.90;;;;;;5135958;27;20202;-71
2022/04/20 02:45:56;;;;;;;3.83;3.50;;;7.90;99.90;;;;;;5135678;28;20202;-71
2022/04/20 02:48:23;;;;;;;9.05;3.70;;;7.90;99.90;;;;;;5135613;28;20602;-71
2022/04/20 02:50:49;;;;;;;3.55;3.25;;;7.80;99.90;;;;;;5135947;28;20229;-71
2022/04/20 02:53:16;;;;;;;3.78;3.15;;;7.80;99.90;;;;;;5135627;28;20202;-71
2022/04/20 02:55:42;;;;;;;5.88;3.53;;;7.80;99.90;;;;;;5135976;28;20198;-71
2022/04/20 02:58:09;;;;;;;4.00;3.70;;;7.90;99.90;;;;;;5136207;28;20664;-71
2022/04/20 03:00:36;;;;;;;3.58;3.28;;;7.90;99.90;;;;;;5135741;28;20198;-71
2022/04/20 03:03:02;;;;;;;3.60;3.30;;;7.90;99.90;;;;;;5135288;28;20206;-71
2022/04/20 03:05:29;;;;;;;4.75;4.38;;;7.90;99.90;;;;;;5135629;27;20218;-71
2022/04/20 03:07:55;;;;;;;3.45;3.25;;;7.90;99.90;;;;;;5133802;28;20210;-71
2022/04/20 03:10:25;;;;;;;8.30;4.00;;;7.90;99.90;;;;;;5134845;28;20228;-71
2022/04/20 03:12:52;;;;;;;4.20;3.90;;;7.80;99.90;;;;;;5135040;28;20198;-71
2022/04/20 03:15:18;;;;;;;4.60;3.65;;;7.70;99.90;;;;;;5135680;28;20210;-71
2022/04/20 03:17:45;;;;;;;5.93;4.57;;;7.60;99.90;;;;;;5135845;28;20223;-71
2022/04/20 03:20:11;;;;;;;8.82;3.80;;;7.60;99.90;;;;;;5134965;28;20209;-70
2022/04/20 03:22:38;;;;;;;4.53;4.13;;;7.50;99.90;;;;;;5134389;28;20198;-70
2022/04/20 03:25:05;;;;;;;6.32;3.65;;;7.50;99.90;;;;;;5135165;28;20242;-70
2022/04/20 03:27:31;;;;;;;3.88;3.58;;;7.40;99.90;;;;;;5135657;28;20206;-70
2022/04/20 03:29:58;;;;;;;6.10;4.07;;;7.40;99.90;;;;;;5134840;28;20250;-70
2022/04/20 03:32:24;;;;;;;4.40;4.00;;;7.40;99.90;;;;;;5117116;28;20229;-70
2022/04/20 03:34:51;;;;;;;3.50;3.20;;;7.30;99.90;;;;;;5117333;28;20221;-70
2022/04/20 03:37:17;;;;;;;5.53;4.05;;;7.20;99.90;;;;;;5135108;28;20208;-70
2022/04/20 03:39:44;;;;;;;5.97;4.07;;;7.20;99.90;;;;;;5134960;28;20205;-70
2022/04/20 03:42:11;;;;;;;3.42;3.20;;;7.10;99.90;;;;;;5134847;28;20205;-70
2022/04/20 03:44:39;;;;;;;5.32;3.90;;;7.00;99.90;;;;;;5116091;28;20209;-70
2022/04/20 03:47:06;;;;;;;5.68;4.05;;;7.10;99.90;;;;;;5134336;28;20271;-70
2022/04/20 03:49:33;;;;;;;4.60;4.20;;;7.00;99.90;;;;;;5134751;27;20194;-69
2022/04/20 03:52:01;;;;;;;4.32;3.92;;;7.00;99.90;;;;;;5138602;27;20222;-70
2022/04/20 03:54:27;;;;;;;3.55;3.33;;;6.90;99.90;;;;;;5102926;27;20208;-70
2022/04/20 03:57:03;;;;;;;5.82;3.67;;;6.90;99.90;;;;;;5137931;27;20194;-70
2022/04/20 03:59:31;;;;;;;4.22;3.90;;;6.90;99.90;;;;;;5138402;27;20185;-70
2022/04/20 04:01:57;;;;;;;3.97;3.58;;;6.80;99.90;;;;;;5138144;27;20197;-70
2022/04/20 04:04:24;;;;;;;6.32;4.10;;;6.90;99.90;;;;;;5138550;27;20194;-70
2022/04/20 04:06:50;;;;;;;5.53;4.50;;;6.80;99.90;;;;;;5137176;27;20218;-70
2022/04/20 04:09:17;;;;;;;7.05;4.32;;;6.80;99.90;;;;;;5137255;27;20796;-70
2022/04/20 04:11:43;;;;;;;4.47;4.07;;;6.80;99.90;;;;;;5137812;27;20218;-70
2022/04/20 04:14:10;;;;;;;4.25;3.95;;;6.80;99.90;;;;;;5137897;27;20657;-70
2022/04/20 04:16:36;;;;;;;4.15;3.78;;;6.70;99.90;;;;;;5138299;27;20613;-70
2022/04/20 04:19:04;;;;;;;5.88;3.83;;;6.60;99.90;;;;;;5137911;27;20194;-69
2022/04/20 04:21:38;;;;;;;11.25;3.42;;;6.60;99.90;;;;;;5119060;27;20622;-70
2022/04/20 04:24:08;;;;;;;5.63;3.60;;;6.60;99.90;;;;;;5137909;27;20234;-69
2022/04/20 04:26:35;;;;;;;4.70;4.32;;;6.50;99.90;;;;;;5137574;27;20202;-69
2022/04/20 04:29:02;;;;;;;4.25;3.75;;;6.40;99.90;;;;;;5138083;27;20205;-69
2022/04/20 04:31:29;;;;;;;4.15;3.80;;;6.40;99.90;;;;;;5137847;27;20587;-69
2022/04/20 04:33:56;;;;;;;4.35;3.97;;;6.50;99.90;;;;;;5118581;27;20198;-69
2022/04/20 04:36:22;;;;;;;6.60;4.13;;;6.50;99.90;;;;;;5137454;27;20539;-69
2022/04/20 04:38:49;;;;;;;4.72;3.85;;;6.50;99.90;;;;;;5137515;27;20725;-69
2022/04/20 04:41:15;;;;;;;4.03;3.47;;;6.40;99.90;;;;;;5137436;27;20657;-68
2022/04/20 04:43:41;;;;;;;6.07;3.72;;;6.40;99.90;;;;;;5138006;27;20201;-68
2022/04/20 04:48:53;;;;;;;5.15;3.70;;;6.40;99.90;;;;;;5137874;27;20189;-68
2022/04/20 04:51:19;;;;;;;3.80;3.50;;;6.40;99.90;;;;;;5137039;27;20696;-69
2022/04/20 04:53:46;;;;;;;13.88;4.60;;;6.40;99.90;;;;;;5137438;27;20213;-68
2022/04/20 04:56:12;;;;;;;6.22;3.75;;;6.40;99.90;;;;;;5137623;27;20198;-68
2022/04/20 04:58:39;;;;;;;5.80;4.20;;;6.50;99.90;;;;;;5137757;27;20198;-70
2022/04/20 05:01:05;;;;;;;8.40;3.58;;;6.50;99.90;;;;;;5136890;27;20205;-69
2022/04/20 05:03:31;;;;;;;4.18;3.40;;;6.50;99.90;;;;;;5137537;27;20284;-69
2022/04/20 05:05:58;;;;;;;8.07;3.80;;;6.50;99.90;;;;;;5137157;27;20701;-69
2022/04/20 05:08:24;;;;;;;8.90;4.05;;;6.50;99.90;;;;;;5136538;27;20230;-69
2022/04/20 05:10:52;;;;;;;6.88;6.18;;;6.50;99.90;;;;;;5137174;27;20229;-69
2022/04/20 05:13:18;;;;;;;5.38;4.88;;;6.60;99.90;;;;;;5136815;27;20206;-69
2022/04/20 05:15:45;;;;;;;4.72;4.15;;;6.50;99.90;;;;;;5136862;27;20676;-69
2022/04/20 05:18:12;;;;;;;4.03;3.72;;;6.50;99.90;;;;;;5117636;27;20231;-70
2022/04/20 05:20:38;;;;;;;4.38;4.07;;;6.50;99.90;;;;;;5137223;27;20194;-69
2022/04/20 05:23:08;;;;;;;3.63;3.40;;;6.50;99.90;;;;;;5137225;27;20607;-69
2022/04/20 05:25:35;;;;;;;3.70;3.40;;;6.60;99.90;;;;;;5136948;27;20202;-70
2022/04/20 05:28:01;;;;;;;4.70;3.60;;;6.70;99.90;;;;;;5136808;27;20593;-69
2022/04/20 05:30:28;;;;;;;2.97;2.80;;;6.80;99.90;;;;;;5136912;27;20204;-70
2022/04/20 05:33:00;;;;;;;3.85;3.55;;;6.80;99.90;;;;;;5135155;27;20197;-69
2022/04/20 05:35:26;;;;;;;3.65;3.35;;;6.80;99.90;;;;;;5118381;27;20198;-69
2022/04/20 05:43:22;;;;;;;3.83;3.53;;;7.10;99.90;;;;;;5137373;27;20657;-70
2022/04/20 05:45:50;;;;;;;4.68;4.28;;;7.30;99.90;;;;;;5137112;27;20243;-70
2022/04/20 05:48:16;;;;;;;9.10;3.97;;;7.40;99.90;;;;;;5136972;27;20219;-70
2022/04/20 05:50:43;;;;;;;6.20;5.35;;;7.50;99.90;;;;;;5119307;27;20194;-70
2022/04/20 05:53:10;;;;;;;4.50;4.10;;;7.60;99.90;;;;;;5136739;27;20190;-69
2022/04/20 05:55:37;;;;;;;5.03;4.60;;;7.60;99.90;;;;;;5135938;27;20222;-69
2022/04/20 05:58:03;;;;;;;4.82;4.30;;;7.70;99.90;;;;;;5135591;27;20201;-69
2022/04/20 06:00:31;;;;;;;4.20;3.90;;;7.70;99.90;;;;;;5136821;27;20194;-69
2022/04/20 06:02:57;;;;;;;4.63;4.22;;;7.70;99.90;;;;;;5118305;27;20198;-70
2022/04/20 06:05:24;;;;;;;6.07;5.47;;;7.70;99.90;;;;;;5135380;27;20609;-69
2022/04/20 06:07:50;;;;;;;4.07;3.67;;;7.90;99.90;;;;;;5116596;27;20270;-69
2022/04/20 06:10:17;;;;;;;9.70;4.45;;;8.10;99.90;;;;;;5135230;27;20634;-70
2022/04/20 06:12:43;;;;;;;7.65;4.20;;;8.20;99.90;;;;;;5135644;27;20703;-69
2022/04/20 06:15:10;;;;;;;4.50;4.15;;;8.20;99.90;;;;;;5136043;27;20194;-69
2022/04/20 06:17:37;;;;;;;9.23;4.00;;;8.20;99.90;;;;;;5135380;27;20202;-70
2022/04/20 06:20:05;;;;;;;6.68;4.68;;;8.40;99.90;;;;;;5117900;27;20186;-69
2022/04/20 06:22:32;;;;;;;6.53;3.85;;;8.40;99.90;;;;;;5136300;27;20205;-69
2022/04/20 06:24:58;;;;;;;13.10;6.85;;;8.50;99.90;;;;;;5135869;27;20202;-69
2022/04/20 06:27:31;;;;;;;6.50;4.32;;;8.60;99.90;;;;;;5117719;27;20202;-69
2022/04/20 06:29:58;;;;;;;4.00;3.70;;;8.70;99.90;;;;;;5135573;27;20217;-70
2022/04/20 06:32:25;;;;;;;4.55;4.15;;;8.70;99.90;;;;;;5135647;27;20218;-69
2022/04/20 06:34:52;;;;;;;5.82;4.80;;;8.70;99.90;;;;;;5135830;27;20254;-69
2022/04/20 06:37:19;;;;;;;4.45;3.90;;;8.80;99.90;;;;;;5135506;27;20201;-69
2022/04/20 06:39:46;;;;;;;9.30;3.83;;;8.90;99.90;;;;;;5135088;27;20194;-69
2022/04/20 06:42:12;;;;;;;4.40;4.10;;;9.00;99.90;;;;;;5135318;27;20561;-69
2022/04/20 06:44:39;;;;;;;8.38;5.85;;;8.90;99.90;;;;;;5134552;27;20265;-69
2022/04/20 06:47:06;;;;;;;4.50;4.10;;;9.00;99.90;;;;;;5117130;28;20194;-69
2022/04/20 06:49:33;;;;;;;4.47;4.07;;;9.10;99.90;;;;;;5135564;28;20282;-69
2022/04/20 07:00:17;;;;;;;4.15;3.85;;;9.40;99.90;;;;;;5135498;28;20549;-69
2022/04/20 07:02:44;;;;;;;10.60;3.75;;;9.50;99.90;;;;;;5136194;28;20182;-69
2022/04/20 07:05:11;;;;;;;4.55;4.15;;;9.50;99.90;;;;;;5135123;27;20208;-69
2022/04/20 07:07:37;;;;;;;5.03;4.63;;;9.50;99.90;;;;;;5134778;28;20218;-69
2022/04/20 07:10:04;;;;;;;8.75;4.45;;;9.60;99.90;;;;;;5134232;28;20218;-69
2022/04/20 07:12:31;;;;;;;5.75;3.92;;;9.80;99.90;;;;;;5135413;28;20274;-69
2022/04/20 07:14:58;;;;;;;4.43;3.90;;;9.70;99.90;;;;;;5135233;28;20197;-69
2022/04/20 07:17:24;;;;;;;5.45;3.83;;;9.80;99.90;;;;;;5134914;28;20261;-69
2022/04/20 07:19:50;;;;;;;4.57;4.10;;;10.00;99.90;;;;;;5116640;28;20634;-69
2022/04/20 07:22:17;;;;;;;4.55;4.15;;;9.90;99.90;;;;;;5116695;28;20627;-69
2022/04/20 07:24:43;;;;;;;4.15;3.40;;;10.10;99.90;;;;;;5117995;27;20209;-69
2022/04/20 07:27:10;;;;;;;3.67;3.30;;;10.20;99.90;;;;;;5139443;27;20201;-69
2022/04/20 07:29:36;;;;;;;4.55;4.00;;;10.30;99.90;;;;;;5138997;27;20210;-69
2022/04/20 07:32:03;;;;;;;5.45;3.92;;;10.50;99.90;;;;;;5138679;27;20692;-70
2022/04/20 07:34:29;;;;;;;3.42;3.08;;;10.50;99.90;;;;;;5139209;27;20202;-69
2022/04/20 07:36:55;;;;;;;3.83;3.53;;;10.30;99.90;;;;;;5139411;27;20190;-71
2022/04/20 07:39:22;;;;;;;4.22;3.92;;;10.50;99.90;;;;;;5138607;27;20197;-69
2022/04/20 07:41:48;;;;;;;3.67;3.00;;;10.70;99.90;;;;;;5138811;27;20653;-70
2022/04/20 07:44:15;;;;;;;3.75;2.95;;;10.80;99.90;;;;;;5139274;27;20198;-69
2022/04/20 07:46:41;;;;;;;5.35;3.92;;;10.90;99.90;;;;;;5138267;27;20201;-69
2022/04/20 07:51:53;;;;;;;3.90;3.42;;;10.90;99.90;;;;;;5137925;27;20818;-72
2022/04/20 07:54:19;;;;;;;5.05;4.40;;;11.00;99.90;;;;;;5138905;27;20205;-72
2022/04/20 07:56:45;;;;;;;3.65;3.45;;;11.00;99.90;;;;;;5140158;27;20530;-71
2022/04/20 07:59:12;;;;;;;7.07;3.63;;;11.40;99.90;;;;;;5119928;27;20205;-71
2022/04/20 08:01:38;;;;;;;3.80;3.50;;;11.50;99.90;;;;;;5139118;27;20198;-71
2022/04/20 08:04:05;;;;;;;3.80;3.50;;;11.40;99.90;;;;;;5138829;27;20198;-71
2022/04/20 08:06:31;;;;;;;14.13;4.45;;;11.40;99.90;;;;;;5138925;27;20243;-72
2022/04/20 08:08:59;;;;;;;8.05;4.00;;;11.50;99.90;;;;;;5138915;27;20229;-72
2022/04/20 08:11:26;;;;;;;5.78;4.18;;;11.60;99.90;;;;;;5119506;27;20225;-72
2022/04/20 08:14:11;;;;;;;3.78;3.45;;;11.80;99.90;;;;;;5119634;27;20201;-74
2022/04/20 08:16:38;;;;;;;3.63;3.30;;;11.80;99.90;;;;;;5118893;27;20198;-73
2022/04/20 08:19:06;;;;;;;5.05;4.40;;;11.70;99.90;;;;;;5138308;27;20201;-73
2022/04/20 08:21:34;;;;;;;3.67;3.20;;;11.90;99.90;;;;;;5138119;27;20206;-72
2022/04/20 08:24:01;;;;;;;3.63;3.22;;;11.80;99.90;;;;;;5120013;27;20205;-73
2022/04/20 08:26:27;;;;;;;3.90;3.60;;;12.00;99.90;;;;;;5138527;27;20263;-72
2022/04/20 08:28:54;;;;;;;4.15;3.72;;;11.80;99.90;;;;;;5119687;27;20198;-72
2022/04/20 08:31:20;;;;;;;6.35;3.30;;;11.90;99.90;;;;;;5137715;27;20201;-73
2022/04/20 08:33:46;;;;;;;8.55;3.83;;;12.00;99.90;;;;;;5120728;27;20202;-73
2022/04/20 08:36:13;;;;;;;3.22;3.00;;;12.20;99.90;;;;;;5136508;27;20657;-72
2022/04/20 08:38:40;;;;;;;3.22;3.03;;;12.10;99.90;;;;;;5137048;27;20190;-72
2022/04/20 08:41:11;;;;;;;4.25;3.78;;;12.20;99.90;;;;;;5137974;27;20206;-72
2022/04/20 08:43:41;;;;;;;6.65;3.35;;;12.10;99.90;;;;;;5137658;27;20201;-72
2022/04/20 08:46:11;;;;;;;9.77;4.15;;;12.10;99.90;;;;;;5137813;27;20205;-73
2022/04/20 08:48:37;;;;;;;4.95;3.45;;;12.20;99.90;;;;;;5137665;27;20202;-72
2022/04/20 08:51:06;;;;;;;3.63;3.22;;;12.30;99.90;;;;;;5137990;27;20254;-73
2022/04/20 08:53:33;;;;;;;3.60;3.40;;;12.30;99.90;;;;;;5137584;27;20220;-72
2022/04/20 08:58:48;;;;;;;3.45;3.20;;;12.40;99.90;;;;;;5138208;27;20182;-73
2022/04/20 09:01:16;;;;;;;6.35;3.42;;;12.60;99.90;;;;;;5137734;27;20181;-72
2022/04/20 09:03:46;;;;;;;4.70;3.65;;;12.90;99.90;;;;;;5137694;27;20198;-73
2022/04/20 09:06:14;;;;;;;3.67;3.38;;;12.90;99.90;;;;;;5137034;27;20217;-72
2022/04/20 09:08:41;;;;;;;4.83;3.60;;;13.10;99.90;;;;;;5137239;27;20233;-73
2022/04/20 09:11:07;;;;;;;8.13;3.40;;;13.30;99.90;;;;;;5137103;27;20570;-73
2022/04/20 09:13:39;;;;;;;5.93;3.60;;;13.00;99.90;;;;;;5137959;27;21334;-72
2022/04/20 09:16:10;;;;;;;12.00;4.28;;;12.60;99.90;;;;;;5137729;27;20178;-72
2022/04/20 09:18:38;;;;;;;3.53;3.33;;;12.70;99.90;;;;;;5137236;27;20551;-73
2022/04/20 09:21:17;;;;;;;5.27;3.83;;;12.90;99.90;;;;;;5137043;27;20955;-73
2022/04/20 09:23:43;;;;;;;4.40;4.00;;;12.90;99.90;;;;;;5137331;27;20618;-72
2022/04/20 09:26:15;;;;;;;4.95;3.40;;;13.10;99.90;;;;;;5137187;27;20608;-73
2022/04/20 09:29:06;;;;;;;3.47;3.17;;;12.80;99.90;;;;;;5136867;27;20224;-73
2022/04/20 09:31:45;;;;;;;3.95;3.65;;;13.00;99.90;;;;;;5136837;27;20205;-73
2022/04/20 09:37:15;;;;;;;4.13;3.83;;;13.10;99.90;;;;;;5137145;27;20296;-72
2022/04/20 09:39:46;;;;;;;3.30;3.00;;;13.50;99.90;;;;;;5136029;27;20674;-73
2022/04/20 09:42:12;;;;;;;3.90;3.60;;;13.70;99.90;;;;;;5136498;27;20608;-73
2022/04/20 09:44:52;;;;;;;4.90;3.53;;;13.50;99.90;;;;;;5136453;27;20619;-72
2022/04/20 09:50:07;;;;;;;3.77;3.37;;;13.70;99.90;;;;;;5135714;27;20564;-73
2022/04/20 09:52:41;;;;;;;3.37;3.17;;;13.40;99.90;;;;;;5136111;27;20674;-73
2022/04/20 09:55:11;;;;;;;3.97;3.70;;;13.70;99.90;;;;;;5135996;27;20619;-73
2022/04/20 09:57:38;;;;;;;6.73;3.70;;;13.50;99.90;;;;;;5135870;27;20953;-73
2022/04/20 10:00:10;;;;;;;5.50;3.53;;;13.60;99.90;;;;;;5136453;27;20945;-72
2022/04/20 10:02:37;;;;;;;3.35;3.05;;;13.20;99.90;;;;;;5117685;27;20619;-72
2022/04/20 10:05:05;;;;;;;3.93;3.53;;;13.30;99.90;;;;;;5136211;27;20212;-73
2022/04/20 10:07:31;;;;;;;5.10;3.10;;;13.90;99.90;;;;;;5136002;27;20622;-73
2022/04/20 10:09:57;;;;;;;3.67;3.13;;;13.60;99.90;;;;;;5136082;27;20624;-73
2022/04/20 10:12:24;;;;;;;3.40;3.20;;;13.70;99.90;;;;;;5136123;27;20662;-73
2022/04/20 10:17:44;;;;;;;3.30;2.63;;;14.00;99.90;;;;;;5137172;27;20568;-73
2022/04/20 10:20:13;;;;;;;3.40;3.10;;;14.30;99.90;;;;;;5136077;27;20608;-73
2022/04/20 10:22:40;;;;;;;4.10;3.80;;;14.30;99.90;;;;;;5136163;27;20619;-72
2022/04/20 10:25:07;;;;;;;3.77;3.47;;;14.20;99.90;;;;;;5136157;27;20607;-73
2022/04/20 10:27:46;;;;;;;3.00;2.80;;;14.30;99.90;;;;;;5135173;27;20634;-72
2022/04/20 10:30:21;;;;;;;3.33;3.13;;;14.40;99.90;;;;;;5135977;27;20575;-72
2022/04/20 10:33:02;;;;;;;4.27;3.47;;;14.60;99.90;;;;;;5136131;27;20598;-72
2022/04/20 10:35:29;;;;;;;4.33;3.33;;;14.00;99.90;;;;;;5135600;27;20619;-73
2022/04/20 10:38:10;;;;;;;3.50;3.30;;;14.10;99.90;;;;;;5136240;27;20976;-73
2022/04/20 10:40:55;;;;;;;3.40;3.17;;;14.30;99.90;;;;;;5117045;28;20604;-72
2022/04/20 10:43:23;;;;;;;3.70;3.40;;;14.10;99.90;;;;;;5136313;27;20607;-72
2022/04/20 10:46:17;;;;;;;6.13;3.43;;;14.20;99.90;;;;;;5135348;27;20615;-73
2022/04/20 10:48:57;;;;;;;3.30;3.10;;;14.30;99.90;;;;;;5135817;28;20626;-72
2022/04/20 10:51:35;;;;;;;4.30;3.90;;;14.80;99.90;;;;;;5135900;28;20638;-73
2022/04/20 10:54:20;;;;;;;3.77;3.00;;;14.50;99.90;;;;;;5135426;28;21053;-73
2022/04/20 10:57:09;;;;;;;4.07;3.67;;;14.50;99.90;;;;;;5135663;28;20687;-73
2022/04/20 10:59:37;;;;;;;7.20;3.70;;;14.60;99.90;;;;;;5135697;27;20634;-73
2022/04/20 11:02:04;;;;;;;3.60;3.30;;;14.30;99.90;;;;;;5139788;27;21260;-73
2022/04/20 11:04:34;;;;;;;4.70;3.60;;;14.40;99.90;;;;;;5139059;27;20623;-72
2022/04/20 11:07:01;;;;;;;4.40;3.27;;;14.30;99.90;;;;;;5139671;27;20610;-73
2022/04/20 11:09:45;;;;;;;3.43;3.23;;;14.50;99.90;;;;;;5139502;27;20647;-73
2022/04/20 11:21:06;;;;;;;9.80;2.97;;;15.90;99.90;;;;;;5139676;27;20563;-73
2022/04/20 11:24:07;;;;;;;3.07;2.90;;;16.30;99.90;;;;;;5138927;27;21173;-73
2022/04/20 11:26:39;;;;;;;3.57;3.37;;;15.90;99.90;;;;;;5138746;27;20613;-73
2022/04/20 11:29:17;;;;;;;6.83;3.00;;;16.10;99.90;;;;;;5138770;27;20624;-73
2022/04/20 11:31:47;;;;;;;3.30;3.00;;;16.30;99.90;;;;;;5138066;27;20630;-73
2022/04/20 11:34:16;;;;;;;3.90;3.50;;;17.10;99.90;;;;;;5138453;27;20677;-73
2022/04/20 11:36:44;;;;;;;2.93;2.83;;;17.00;99.90;;;;;;5138568;27;21002;-73
2022/04/20 11:39:13;;;;;;;3.40;3.20;;;17.20;99.90;;;;;;5140041;27;20603;-73
2022/04/20 11:41:49;;;;;;;2.60;2.50;;;16.80;99.90;;;;;;5139387;27;20607;-73
2022/04/20 11:44:24;;;;;;;2.60;2.50;;;17.20;99.90;;;;;;5139937;27;20665;-73
2022/04/20 11:46:53;;;;;;;2.90;2.77;;;17.20;99.90;;;;;;5139138;27;20614;-73
2022/04/20 11:49:20;;;;;;;3.00;2.83;;;16.90;99.90;;;;;;5138729;27;21306;-73
2022/04/20 11:52:00;;;;;;;3.63;3.40;;;16.50;99.90;;;;;;5139141;27;20604;-73
2022/04/20 11:54:28;;;;;;;3.27;3.00;;;16.80;99.90;;;;;;5138585;27;20608;-73
2022/04/20 11:56:55;;;;;;;3.00;2.80;;;17.50;99.90;;;;;;5139216;27;20668;-73
2022/04/20 11:59:24;;;;;;;3.50;3.20;;;18.10;99.90;;;;;;5138493;27;21186;-73
2022/04/20 12:01:51;;;;;;;3.13;2.83;;;18.50;99.90;;;;;;5120343;27;21178;-73
2022/04/20 12:04:20;;;;;;;4.03;3.17;;;18.70;99.90;;;;;;5139102;27;20595;-71
2022/04/20 12:06:49;;;;;;;3.07;2.77;;;18.60;99.90;;;;;;5138612;27;21225;-71
2022/04/20 12:09:24;;;;;;;3.00;2.80;;;18.80;99.90;;;;;;5138133;27;21335;-73
2022/04/20 12:11:52;;;;;;;3.70;2.90;;;18.60;99.90;;;;;;5138066;27;21187;-73
2022/04/20 12:14:19;;;;;;;4.30;3.67;;;19.00;99.90;;;;;;5137875;27;20615;-73
2022/04/20 12:16:47;;;;;;;3.30;3.10;;;18.90;99.90;;;;;;5137159;27;20676;-73
2022/04/20 12:19:13;;;;;;;3.47;3.17;;;18.50;99.90;;;;;;5120699;27;20607;-73
2022/04/20 12:21:47;;;;;;;4.20;3.17;;;18.80;99.90;;;;;;5138114;27;21162;-73
2022/04/20 12:24:27;;;;;;;3.53;3.23;;;18.10;99.90;;;;;;5138163;27;20619;-73
2022/04/20 12:26:56;;;;;;;3.90;3.60;;;18.00;99.90;;;;;;5137964;27;20598;-73
2022/04/20 12:29:25;;;;;;;4.97;3.40;;;19.10;99.90;;;;;;5138339;27;20610;-73
2022/04/20 12:31:55;;;;;;;9.90;3.57;;;18.70;99.90;;;;;;5138705;27;20603;-73
2022/04/20 12:34:28;;;;;;;3.90;3.40;;;19.30;99.90;;;;;;5119557;27;20626;-73
2022/04/20 12:37:03;;;;;;;3.63;3.37;;;19.60;99.90;;;;;;5137506;27;20617;-73
2022/04/20 12:39:32;;;;;;;3.63;3.37;;;20.10;99.90;;;;;;5138240;27;20580;-73
2022/04/20 12:42:06;;;;;;;3.40;3.20;;;20.10;99.90;;;;;;5137622;27;20607;-73
2022/04/20 12:44:36;;;;;;;3.43;3.13;;;19.60;99.90;;;;;;5119317;27;20962;-73
2022/04/20 12:47:10;;;;;;;4.00;3.70;;;18.70;99.90;;;;;;5135998;27;20619;-73
2022/04/20 12:49:41;;;;;;;3.30;3.07;;;18.90;99.90;;;;;;5136875;27;21054;-73
2022/04/20 12:52:15;;;;;;;3.37;3.17;;;19.20;99.90;;;;;;5137930;27;21282;-74
2022/04/20 12:54:54;;;;;;;15.60;3.97;;;20.30;99.90;;;;;;5137693;27;20586;-73
2022/04/20 13:03:05;;;;;;;3.07;2.90;;;19.10;99.90;;;;;;5137658;27;21121;-73
2022/04/20 13:05:33;;;;;;;2.80;2.70;;;20.40;99.90;;;;;;5137383;27;20647;-73
2022/04/20 13:08:00;;;;;;;3.80;3.50;;;20.50;99.90;;;;;;5137370;27;20615;-73
2022/04/20 13:10:29;;;;;;;3.83;3.57;;;20.30;99.90;;;;;;5136883;27;20623;-73
2022/04/20 13:12:56;;;;;;;3.87;3.57;;;20.70;99.90;;;;;;5136748;27;20659;-73
2022/04/20 13:15:24;;;;;;;6.40;3.23;;;19.90;99.90;;;;;;5136988;27;20997;-74
2022/04/20 13:17:51;;;;;;;4.70;3.50;;;19.90;99.90;;;;;;5136625;27;20615;-74
2022/04/20 13:20:19;;;;;;;7.07;3.30;;;21.00;99.90;;;;;;5137434;27;20592;-73
2022/04/20 13:22:45;;;;;;;3.10;2.83;;;21.00;99.90;;;;;;5136483;27;20619;-73
2022/04/20 13:27:57;;;;;;;4.77;3.27;;;20.70;99.90;;;;;;5135946;27;20736;-73
2022/04/20 13:30:29;;;;;;;3.87;3.57;;;20.50;99.90;;;;;;5137174;27;20661;-71
2022/04/20 13:32:56;;;;;;;7.43;3.40;;;21.80;99.90;;;;;;5136544;27;20666;-71
2022/04/20 13:35:25;;;;;;;3.70;3.37;;;22.00;99.90;;;;;;5118497;27;21017;-71
2022/04/20 13:37:52;;;;;;;6.73;3.53;;;21.50;99.90;;;;;;5136730;27;20637;-71
2022/04/20 13:40:20;;;;;;;3.33;3.13;;;20.50;99.90;;;;;;5136665;27;20620;-71
2022/04/20 13:42:47;;;;;;;4.00;3.70;;;21.20;99.90;;;;;;5135056;27;20628;-73
2022/04/20 13:45:13;;;;;;;3.40;3.20;;;21.90;99.90;;;;;;5138241;27;20622;-73
2022/04/20 13:47:40;;;;;;;3.70;3.50;;;21.50;99.90;;;;;;5118665;27;20618;-73
2022/04/20 13:50:08;;;;;;;3.60;3.40;;;21.10;99.90;;;;;;5136237;27;20687;-73
2022/04/20 13:52:36;;;;;;;3.67;3.47;;;20.60;99.90;;;;;;5136181;27;21033;-73